createdAt,value
2022-07-25T00:00:10.662Z,30.83
2022-07-25T00:00:40.735Z,30.89
2022-07-25T00:01:10.813Z,30.86
2022-07-25T00:01:40.924Z,30.88
2022-07-25T00:02:11.040Z,30.89
2022-07-25T00:02:40.998Z,30.86
2022-07-25T00:03:11.143Z,30.88
2022-07-25T00:03:41.073Z,30.89
2022-07-25T00:04:12.248Z,30.86
2022-07-25T00:04:41.234Z,30.88
2022-07-25T00:05:11.234Z,30.88
2022-07-25T00:05:41.297Z,30.86
2022-07-25T00:06:13.332Z,30.85
2022-07-25T00:06:41.481Z,30.88
2022-07-25T00:07:11.569Z,30.86
2022-07-25T00:07:41.649Z,30.85
2022-07-25T00:08:11.761Z,30.86
2022-07-25T00:08:41.875Z,30.88
2022-07-25T00:09:11.998Z,30.88
2022-07-25T00:09:42.104Z,30.88
2022-07-25T00:10:12.218Z,30.86
2022-07-25T00:10:42.334Z,30.89
2022-07-25T00:11:12.451Z,30.90
2022-07-25T00:11:42.442Z,30.88
2022-07-25T00:12:12.438Z,30.90
2022-07-25T00:12:42.557Z,30.90
2022-07-25T00:13:12.669Z,30.89
2022-07-25T00:13:42.782Z,30.89
2022-07-25T00:14:12.900Z,30.88
2022-07-25T00:14:43.010Z,30.89
2022-07-25T00:15:13.125Z,30.88
2022-07-25T00:15:43.330Z,30.88
2022-07-25T00:16:13.390Z,30.90
2022-07-25T00:16:43.402Z,30.88
2022-07-25T00:17:13.432Z,30.89
2022-07-25T00:17:43.422Z,30.90
2022-07-25T00:18:13.535Z,30.88
2022-07-25T00:18:43.645Z,30.90
2022-07-25T00:19:13.761Z,30.89
2022-07-25T00:19:43.872Z,30.93
2022-07-25T00:20:13.988Z,30.86
2022-07-25T00:20:44.101Z,30.88
2022-07-25T00:21:14.225Z,30.90
2022-07-25T00:21:44.219Z,30.88
2022-07-25T00:22:14.337Z,30.88
2022-07-25T00:22:44.451Z,30.89
2022-07-25T00:23:14.449Z,30.90
2022-07-25T00:23:44.563Z,30.89
2022-07-25T00:24:14.680Z,30.90
2022-07-25T00:24:44.789Z,30.92
2022-07-25T00:25:14.915Z,30.90
2022-07-25T00:25:44.918Z,30.90
2022-07-25T00:26:15.028Z,30.90
2022-07-25T00:26:45.018Z,30.89
2022-07-25T00:27:15.128Z,30.92
2022-07-25T00:27:45.239Z,30.92
2022-07-25T00:28:15.357Z,30.90
2022-07-25T00:28:45.464Z,30.90
2022-07-25T00:29:15.579Z,30.89
2022-07-25T00:29:45.694Z,30.89
2022-07-25T00:30:15.804Z,30.90
2022-07-25T00:30:45.990Z,30.92
2022-07-25T00:31:16.039Z,30.90
2022-07-25T00:31:46.153Z,30.92
2022-07-25T00:32:16.160Z,30.92
2022-07-25T00:32:46.149Z,30.92
2022-07-25T00:33:16.266Z,30.89
2022-07-25T00:33:46.377Z,30.89
2022-07-25T00:34:16.493Z,30.92
2022-07-25T00:34:46.605Z,30.90
2022-07-25T00:35:16.718Z,30.89
2022-07-25T00:35:46.832Z,30.92
2022-07-25T00:36:16.942Z,30.92
2022-07-25T00:36:47.058Z,30.92
2022-07-25T00:37:17.179Z,30.90
2022-07-25T00:37:47.286Z,30.90
2022-07-25T00:38:17.416Z,30.92
2022-07-25T00:38:47.522Z,30.89
2022-07-25T00:39:17.510Z,30.90
2022-07-25T00:39:47.630Z,30.89
2022-07-25T00:40:17.744Z,30.92
2022-07-25T00:40:54.696Z,30.90
2022-07-25T00:41:17.881Z,30.90
2022-07-25T00:41:47.869Z,30.90
2022-07-25T00:42:17.986Z,30.86
2022-07-25T00:42:48.101Z,30.90
2022-07-25T00:43:18.096Z,30.92
2022-07-25T00:43:48.204Z,30.90
2022-07-25T00:44:18.321Z,30.90
2022-07-25T00:44:48.434Z,30.89
2022-07-25T00:45:18.548Z,30.89
2022-07-25T00:45:48.668Z,30.89
2022-07-25T00:46:19.022Z,30.88
2022-07-25T00:46:48.851Z,30.88
2022-07-25T00:47:18.829Z,30.88
2022-07-25T00:47:48.941Z,30.89
2022-07-25T00:48:19.058Z,30.90
2022-07-25T00:48:49.168Z,30.89
2022-07-25T00:49:19.223Z,30.89
2022-07-25T00:49:49.129Z,30.89
2022-07-25T00:50:19.238Z,30.89
2022-07-25T00:50:49.237Z,30.88
2022-07-25T00:51:19.349Z,30.90
2022-07-25T00:51:49.463Z,30.90
2022-07-25T00:52:19.596Z,30.88
2022-07-25T00:52:49.578Z,30.89
2022-07-25T00:53:19.702Z,30.89
2022-07-25T00:53:49.808Z,30.90
2022-07-25T00:54:19.919Z,30.89
2022-07-25T00:54:50.041Z,30.89
2022-07-25T00:55:20.147Z,30.89
2022-07-25T00:55:50.268Z,30.89
2022-07-25T00:56:20.384Z,30.90
2022-07-25T00:56:50.375Z,30.89
2022-07-25T00:57:20.499Z,30.89
2022-07-25T00:57:50.589Z,30.89
2022-07-25T00:58:20.667Z,30.89
2022-07-25T00:58:50.745Z,30.88
2022-07-25T00:59:20.832Z,30.89
2022-07-25T00:59:50.924Z,30.89
2022-07-25T01:00:21.007Z,30.88
2022-07-25T01:00:51.110Z,30.88
2022-07-25T01:01:21.309Z,30.90
2022-07-25T01:01:51.348Z,30.89
2022-07-25T01:02:21.334Z,30.89
2022-07-25T01:02:51.423Z,30.86
2022-07-25T01:03:21.437Z,30.89
2022-07-25T01:03:51.514Z,30.89
2022-07-25T01:04:21.603Z,30.86
2022-07-25T01:04:51.674Z,30.89
2022-07-25T01:05:21.774Z,30.88
2022-07-25T01:05:53.849Z,30.89
2022-07-25T01:06:21.949Z,30.85
2022-07-25T01:06:52.057Z,30.88
2022-07-25T01:07:22.126Z,30.88
2022-07-25T01:07:52.234Z,30.86
2022-07-25T01:08:22.236Z,30.90
2022-07-25T01:08:52.219Z,30.88
2022-07-25T01:09:22.341Z,30.86
2022-07-25T01:09:52.334Z,30.86
2022-07-25T01:10:22.402Z,30.86
2022-07-25T01:10:52.514Z,30.86
2022-07-25T01:11:22.492Z,30.86
2022-07-25T01:11:52.608Z,30.88
2022-07-25T01:12:22.722Z,30.86
2022-07-25T01:12:52.868Z,30.86
2022-07-25T01:13:22.949Z,30.88
2022-07-25T01:13:52.947Z,30.86
2022-07-25T01:14:23.059Z,30.85
2022-07-25T01:14:53.165Z,30.86
2022-07-25T01:15:23.286Z,30.85
2022-07-25T01:15:53.488Z,30.86
2022-07-25T01:16:23.546Z,30.88
2022-07-25T01:16:53.560Z,30.86
2022-07-25T01:17:23.674Z,30.83
2022-07-25T01:17:53.787Z,30.82
2022-07-25T01:18:23.900Z,30.83
2022-07-25T01:18:54.017Z,30.86
2022-07-25T01:19:24.127Z,30.85
2022-07-25T01:19:54.239Z,30.83
2022-07-25T01:20:24.355Z,30.85
2022-07-25T01:20:54.471Z,30.83
2022-07-25T01:21:24.593Z,30.85
2022-07-25T01:21:54.700Z,30.85
2022-07-25T01:22:24.817Z,30.83
2022-07-25T01:22:54.931Z,30.85
2022-07-25T01:23:25.050Z,30.81
2022-07-25T01:23:55.158Z,30.82
2022-07-25T01:24:25.278Z,30.82
2022-07-25T01:24:55.385Z,30.86
2022-07-25T01:25:25.501Z,30.82
2022-07-25T01:25:55.652Z,30.82
2022-07-25T01:26:25.628Z,30.83
2022-07-25T01:26:55.744Z,30.83
2022-07-25T01:27:25.860Z,30.81
2022-07-25T01:27:56.291Z,30.82
2022-07-25T01:28:26.050Z,30.83
2022-07-25T01:28:56.166Z,30.81
2022-07-25T01:29:26.277Z,30.83
2022-07-25T01:29:56.394Z,30.79
2022-07-25T01:30:26.504Z,30.81
2022-07-25T01:30:56.721Z,30.81
2022-07-25T01:31:26.848Z,30.81
2022-07-25T01:31:56.821Z,30.81
2022-07-25T01:32:26.933Z,30.79
2022-07-25T01:32:57.040Z,30.79
2022-07-25T01:33:27.165Z,30.82
2022-07-25T01:33:57.265Z,30.79
2022-07-25T01:34:27.379Z,30.79
2022-07-25T01:34:57.498Z,30.82
2022-07-25T01:35:27.605Z,30.79
2022-07-25T01:35:57.729Z,30.81
2022-07-25T01:36:27.845Z,30.79
2022-07-25T01:36:57.844Z,30.75
2022-07-25T01:37:27.954Z,30.77
2022-07-25T01:37:58.067Z,30.81
2022-07-25T01:38:28.179Z,30.78
2022-07-25T01:38:58.295Z,30.79
2022-07-25T01:39:28.404Z,30.79
2022-07-25T01:39:58.519Z,30.78
2022-07-25T01:40:28.632Z,30.78
2022-07-25T01:40:58.748Z,30.75
2022-07-25T01:41:28.866Z,30.78
2022-07-25T01:41:58.970Z,30.79
2022-07-25T01:42:29.084Z,30.81
2022-07-25T01:42:59.201Z,30.77
2022-07-25T01:43:29.308Z,30.77
2022-07-25T01:43:59.429Z,30.79
2022-07-25T01:44:29.541Z,30.77
2022-07-25T01:44:59.660Z,30.77
2022-07-25T01:45:29.771Z,30.77
2022-07-25T01:45:59.939Z,30.77
2022-07-25T01:46:30.015Z,30.78
2022-07-25T01:47:00.022Z,30.78
2022-07-25T01:47:30.130Z,30.77
2022-07-25T01:48:00.248Z,30.77
2022-07-25T01:48:30.415Z,30.77
2022-07-25T01:49:00.533Z,30.78
2022-07-25T01:49:30.499Z,30.77
2022-07-25T01:50:00.625Z,30.78
2022-07-25T01:50:30.623Z,30.77
2022-07-25T01:51:00.725Z,30.77
2022-07-25T01:51:30.839Z,30.77
2022-07-25T01:52:00.951Z,30.77
2022-07-25T01:52:31.059Z,30.79
2022-07-25T01:53:01.174Z,30.77
2022-07-25T01:53:31.279Z,30.77
2022-07-25T01:54:01.394Z,30.75
2022-07-25T01:54:31.409Z,30.78
2022-07-25T01:55:01.474Z,30.79
2022-07-25T01:55:31.568Z,30.75
2022-07-25T01:56:01.923Z,30.75
2022-07-25T01:56:31.821Z,30.78
2022-07-25T01:57:01.616Z,30.77
2022-07-25T01:57:31.688Z,30.72
2022-07-25T01:58:01.762Z,30.77
2022-07-25T01:58:31.832Z,30.77
2022-07-25T01:59:01.934Z,30.77
2022-07-25T01:59:32.011Z,30.75
2022-07-25T02:00:02.092Z,30.75
2022-07-25T02:00:32.167Z,30.74
2022-07-25T02:01:02.344Z,30.74
2022-07-25T02:01:32.361Z,30.78
2022-07-25T02:02:02.536Z,30.74
2022-07-25T02:02:32.492Z,30.78
2022-07-25T02:03:02.576Z,30.78
2022-07-25T02:03:32.659Z,30.75
2022-07-25T02:04:02.813Z,30.78
2022-07-25T02:04:32.912Z,30.77
2022-07-25T02:05:02.980Z,30.75
2022-07-25T02:05:32.902Z,30.78
2022-07-25T02:06:02.982Z,30.77
2022-07-25T02:06:33.057Z,30.74
2022-07-25T02:07:03.129Z,30.78
2022-07-25T02:07:33.206Z,30.77
2022-07-25T02:08:03.323Z,30.77
2022-07-25T02:08:33.313Z,30.77
2022-07-25T02:09:03.433Z,30.77
2022-07-25T02:09:33.547Z,30.75
2022-07-25T02:10:03.658Z,30.74
2022-07-25T02:10:33.771Z,30.75
2022-07-25T02:11:03.900Z,30.75
2022-07-25T02:11:33.884Z,30.77
2022-07-25T02:12:03.997Z,30.77
2022-07-25T02:12:34.110Z,30.77
2022-07-25T02:13:04.238Z,30.78
2022-07-25T02:13:34.215Z,30.75
2022-07-25T02:14:04.772Z,30.75
2022-07-25T02:14:34.409Z,30.75
2022-07-25T02:15:04.524Z,30.77
2022-07-25T02:15:34.635Z,30.77
2022-07-25T02:16:04.754Z,30.77
2022-07-25T02:16:34.944Z,30.75
2022-07-25T02:17:05.065Z,30.75
2022-07-25T02:17:34.936Z,30.78
2022-07-25T02:18:05.045Z,30.78
2022-07-25T02:18:35.039Z,30.77
2022-07-25T02:19:05.151Z,30.77
2022-07-25T02:19:35.265Z,30.77
2022-07-25T02:20:05.377Z,30.74
2022-07-25T02:20:35.490Z,30.75
2022-07-25T02:21:05.607Z,30.74
2022-07-25T02:21:35.619Z,30.75
2022-07-25T02:22:05.733Z,30.74
2022-07-25T02:22:35.847Z,30.75
2022-07-25T02:23:05.978Z,30.75
2022-07-25T02:23:36.078Z,30.75
2022-07-25T02:24:06.499Z,30.75
2022-07-25T02:24:36.290Z,30.75
2022-07-25T02:25:06.437Z,30.75
2022-07-25T02:25:36.401Z,30.75
2022-07-25T02:26:06.519Z,30.74
2022-07-25T02:26:36.632Z,30.74
2022-07-25T02:27:06.739Z,30.77
2022-07-25T02:27:36.856Z,30.74
2022-07-25T02:28:06.974Z,30.74
2022-07-25T02:28:37.088Z,30.77
2022-07-25T02:29:07.203Z,30.72
2022-07-25T02:29:37.316Z,30.75
2022-07-25T02:30:07.433Z,30.74
2022-07-25T02:30:37.583Z,30.75
2022-07-25T02:31:07.660Z,30.72
2022-07-25T02:31:37.669Z,30.74
2022-07-25T02:32:07.779Z,30.77
2022-07-25T02:32:37.894Z,30.74
2022-07-25T02:33:08.016Z,30.75
2022-07-25T02:33:38.002Z,30.74
2022-07-25T02:34:08.424Z,30.74
2022-07-25T02:34:38.124Z,30.75
2022-07-25T02:35:09.854Z,30.74
2022-07-25T02:35:38.252Z,30.75
2022-07-25T02:36:08.374Z,30.72
2022-07-25T02:36:38.479Z,30.72
2022-07-25T02:37:08.600Z,30.72
2022-07-25T02:37:38.706Z,30.72
2022-07-25T02:38:08.830Z,30.74
2022-07-25T02:38:38.942Z,30.75
2022-07-25T02:39:09.052Z,30.71
2022-07-25T02:39:39.169Z,30.74
2022-07-25T02:40:09.283Z,30.74
2022-07-25T02:40:39.399Z,30.75
2022-07-25T02:41:09.512Z,30.72
2022-07-25T02:41:39.634Z,30.72
2022-07-25T02:42:09.743Z,30.74
2022-07-25T02:42:39.741Z,30.75
2022-07-25T02:43:09.870Z,30.74
2022-07-25T02:43:39.850Z,30.74
2022-07-25T02:44:10.326Z,30.75
2022-07-25T02:44:39.947Z,30.72
2022-07-25T02:45:10.063Z,30.75
2022-07-25T02:45:40.200Z,30.74
2022-07-25T02:46:10.275Z,30.72
2022-07-25T02:46:40.290Z,30.74
2022-07-25T02:47:10.405Z,30.72
2022-07-25T02:47:40.516Z,30.75
2022-07-25T02:48:10.636Z,30.74
2022-07-25T02:48:40.801Z,30.72
2022-07-25T02:49:10.933Z,30.74
2022-07-25T02:49:40.804Z,30.72
2022-07-25T02:50:14.560Z,30.74
2022-07-25T02:50:41.015Z,30.74
2022-07-25T02:51:11.125Z,30.72
2022-07-25T02:51:41.244Z,30.70
2022-07-25T02:52:11.363Z,30.72
2022-07-25T02:52:41.472Z,30.72
2022-07-25T02:53:11.585Z,30.70
2022-07-25T02:53:58.726Z,30.74
2022-07-25T02:54:12.014Z,30.72
2022-07-25T02:54:41.737Z,30.74
2022-07-25T02:55:11.850Z,30.74
2022-07-25T02:55:41.964Z,30.72
2022-07-25T02:56:12.005Z,30.74
2022-07-25T02:56:42.013Z,30.72
2022-07-25T02:57:12.120Z,30.74
2022-07-25T02:57:42.216Z,30.70
2022-07-25T02:58:12.291Z,30.72
2022-07-25T02:58:42.368Z,30.71
2022-07-25T02:59:12.442Z,30.74
2022-07-25T02:59:42.510Z,30.71
2022-07-25T03:00:12.583Z,30.74
2022-07-25T03:00:42.661Z,30.72
2022-07-25T03:01:12.894Z,30.71
2022-07-25T03:01:42.904Z,30.71
2022-07-25T03:02:12.852Z,30.72
2022-07-25T03:02:42.928Z,30.71
2022-07-25T03:03:13.003Z,30.71
2022-07-25T03:03:43.119Z,30.72
2022-07-25T03:04:13.228Z,30.72
2022-07-25T03:04:43.179Z,30.70
2022-07-25T03:05:13.258Z,30.72
2022-07-25T03:05:43.330Z,30.70
2022-07-25T03:06:13.423Z,30.72
2022-07-25T03:06:43.499Z,30.71
2022-07-25T03:07:13.586Z,30.71
2022-07-25T03:07:43.663Z,30.71
2022-07-25T03:08:13.776Z,30.71
2022-07-25T03:08:43.887Z,30.74
2022-07-25T03:09:14.002Z,30.71
2022-07-25T03:09:44.116Z,30.72
2022-07-25T03:10:14.228Z,30.72
2022-07-25T03:10:44.340Z,30.71
2022-07-25T03:11:14.466Z,30.71
2022-07-25T03:11:44.453Z,30.74
2022-07-25T03:12:14.585Z,30.74
2022-07-25T03:12:44.575Z,30.71
2022-07-25T03:13:14.689Z,30.74
2022-07-25T03:13:44.801Z,30.72
2022-07-25T03:14:14.803Z,30.74
2022-07-25T03:14:44.796Z,30.74
2022-07-25T03:15:14.910Z,30.72
2022-07-25T03:15:45.027Z,30.72
2022-07-25T03:16:15.191Z,30.71
2022-07-25T03:16:45.243Z,30.75
2022-07-25T03:17:15.269Z,30.74
2022-07-25T03:17:45.382Z,30.74
2022-07-25T03:18:15.506Z,30.72
2022-07-25T03:18:45.614Z,30.75
2022-07-25T03:19:15.729Z,30.71
2022-07-25T03:19:45.838Z,30.75
2022-07-25T03:20:15.967Z,30.74
2022-07-25T03:20:45.959Z,30.74
2022-07-25T03:21:16.072Z,30.77
2022-07-25T03:21:46.183Z,30.74
2022-07-25T03:22:16.300Z,30.72
2022-07-25T03:22:46.408Z,30.72
2022-07-25T03:23:16.442Z,30.72
2022-07-25T03:23:52.016Z,30.72
2022-07-25T03:24:16.563Z,30.74
2022-07-25T03:24:46.679Z,30.74
2022-07-25T03:25:21.850Z,30.74
2022-07-25T03:25:46.799Z,30.74
2022-07-25T03:26:16.917Z,30.77
2022-07-25T03:26:47.032Z,30.74
2022-07-25T03:27:17.144Z,30.72
2022-07-25T03:27:47.256Z,30.72
2022-07-25T03:28:17.371Z,30.74
2022-07-25T03:28:47.482Z,30.74
2022-07-25T03:29:17.598Z,30.72
2022-07-25T03:29:47.714Z,30.74
2022-07-25T03:30:17.828Z,30.72
2022-07-25T03:30:47.827Z,30.75
2022-07-25T03:31:18.016Z,30.75
2022-07-25T03:31:48.087Z,30.75
2022-07-25T03:32:18.183Z,30.72
2022-07-25T03:32:48.205Z,30.72
2022-07-25T03:33:18.322Z,30.75
2022-07-25T03:33:48.441Z,30.75
2022-07-25T03:34:18.555Z,30.74
2022-07-25T03:34:48.549Z,30.72
2022-07-25T03:35:18.660Z,30.74
2022-07-25T03:35:48.791Z,30.75
2022-07-25T03:36:18.888Z,30.74
2022-07-25T03:36:49.003Z,30.72
2022-07-25T03:37:19.116Z,30.74
2022-07-25T03:37:49.226Z,30.74
2022-07-25T03:38:19.337Z,30.77
2022-07-25T03:38:49.455Z,30.77
2022-07-25T03:39:19.452Z,30.75
2022-07-25T03:39:49.582Z,30.77
2022-07-25T03:40:19.570Z,30.75
2022-07-25T03:40:49.684Z,30.75
2022-07-25T03:41:19.801Z,30.72
2022-07-25T03:41:49.916Z,30.74
2022-07-25T03:42:24.945Z,30.74
2022-07-25T03:42:50.034Z,30.75
2022-07-25T03:43:20.149Z,30.75
2022-07-25T03:43:50.277Z,30.75
2022-07-25T03:44:20.266Z,30.74
2022-07-25T03:44:50.397Z,30.72
2022-07-25T03:45:20.384Z,30.75
2022-07-25T03:45:50.575Z,30.75
2022-07-25T03:46:20.654Z,30.75
2022-07-25T03:46:50.570Z,30.74
2022-07-25T03:47:21.006Z,30.72
2022-07-25T03:47:50.654Z,30.72
2022-07-25T03:48:20.770Z,30.74
2022-07-25T03:48:51.011Z,30.75
2022-07-25T03:49:20.895Z,30.77
2022-07-25T03:49:51.011Z,30.74
2022-07-25T03:50:21.129Z,30.75
2022-07-25T03:50:51.243Z,30.75
2022-07-25T03:51:21.363Z,30.75
2022-07-25T03:51:51.475Z,30.75
2022-07-25T03:52:21.590Z,30.72
2022-07-25T03:52:51.701Z,30.74
2022-07-25T03:53:21.818Z,30.77
2022-07-25T03:53:51.931Z,30.75
2022-07-25T03:54:22.053Z,30.74
2022-07-25T03:54:52.083Z,30.74
2022-07-25T03:55:22.212Z,30.74
2022-07-25T03:55:52.307Z,30.72
2022-07-25T03:56:22.432Z,30.74
2022-07-25T03:56:52.544Z,30.75
2022-07-25T03:57:22.659Z,30.72
2022-07-25T03:57:52.773Z,30.75
2022-07-25T03:58:22.885Z,30.77
2022-07-25T03:58:52.999Z,30.74
2022-07-25T03:59:23.118Z,30.77
2022-07-25T03:59:53.231Z,30.74
2022-07-25T04:00:23.351Z,30.75
2022-07-25T04:00:53.557Z,30.74
2022-07-25T04:01:23.648Z,30.75
2022-07-25T04:01:53.720Z,30.72
2022-07-25T04:02:23.766Z,30.74
2022-07-25T04:02:53.749Z,30.74
2022-07-25T04:03:23.862Z,30.71
2022-07-25T04:03:53.976Z,30.72
2022-07-25T04:04:24.094Z,30.74
2022-07-25T04:04:54.204Z,30.72
2022-07-25T04:05:24.194Z,30.77
2022-07-25T04:05:54.307Z,30.74
2022-07-25T04:06:24.426Z,30.75
2022-07-25T04:06:54.422Z,30.74
2022-07-25T04:07:24.537Z,30.71
2022-07-25T04:07:54.569Z,30.74
2022-07-25T04:08:24.594Z,30.74
2022-07-25T04:08:54.625Z,30.75
2022-07-25T04:09:24.663Z,30.74
2022-07-25T04:09:54.682Z,30.75
2022-07-25T04:10:24.726Z,30.74
2022-07-25T04:10:54.732Z,30.77
2022-07-25T04:11:24.762Z,30.72
2022-07-25T04:11:54.790Z,30.72
2022-07-25T04:12:24.818Z,30.74
2022-07-25T04:12:54.849Z,30.72
2022-07-25T04:13:24.874Z,30.72
2022-07-25T04:13:54.905Z,30.74
2022-07-25T04:14:24.926Z,30.74
2022-07-25T04:14:54.963Z,30.74
2022-07-25T04:15:24.992Z,30.78
2022-07-25T04:15:55.016Z,30.74
2022-07-25T04:16:25.156Z,30.72
2022-07-25T04:16:55.202Z,30.72
2022-07-25T04:17:25.300Z,30.72
2022-07-25T04:17:55.200Z,30.75
2022-07-25T04:18:28.539Z,30.72
2022-07-25T04:18:55.270Z,30.72
2022-07-25T04:19:26.241Z,30.77
2022-07-25T04:19:55.384Z,30.72
2022-07-25T04:20:25.408Z,30.72
2022-07-25T04:20:55.439Z,30.74
2022-07-25T04:21:25.465Z,30.74
2022-07-25T04:21:55.504Z,30.72
2022-07-25T04:22:25.527Z,30.74
2022-07-25T04:22:55.559Z,30.77
2022-07-25T04:23:25.583Z,30.72
2022-07-25T04:23:55.611Z,30.74
2022-07-25T04:24:25.636Z,30.71
2022-07-25T04:24:55.673Z,30.74
2022-07-25T04:25:25.691Z,30.74
2022-07-25T04:25:55.738Z,30.74
2022-07-25T04:26:25.756Z,30.74
2022-07-25T04:26:55.804Z,30.72
2022-07-25T04:27:25.822Z,30.74
2022-07-25T04:27:55.857Z,30.72
2022-07-25T04:28:25.873Z,30.74
2022-07-25T04:28:55.912Z,30.75
2022-07-25T04:29:25.934Z,30.77
2022-07-25T04:29:55.962Z,30.75
2022-07-25T04:30:25.984Z,30.74
2022-07-25T04:30:56.010Z,30.75
2022-07-25T04:31:26.177Z,30.72
2022-07-25T04:31:56.173Z,30.72
2022-07-25T04:32:26.242Z,30.72
2022-07-25T04:32:56.290Z,30.72
2022-07-25T04:33:26.307Z,30.74
2022-07-25T04:33:56.335Z,30.75
2022-07-25T04:34:26.352Z,30.71
2022-07-25T04:34:56.388Z,30.74
2022-07-25T04:35:26.411Z,30.75
2022-07-25T04:35:56.440Z,30.71
2022-07-25T04:36:26.465Z,30.72
2022-07-25T04:36:56.498Z,30.75
2022-07-25T04:37:26.527Z,30.74
2022-07-25T04:37:56.547Z,30.74
2022-07-25T04:38:26.572Z,30.75
2022-07-25T04:38:56.597Z,30.74
2022-07-25T04:39:26.624Z,30.72
2022-07-25T04:39:56.653Z,30.74
2022-07-25T04:40:26.674Z,30.74
2022-07-25T04:40:56.708Z,30.74
2022-07-25T04:41:26.730Z,30.70
2022-07-25T04:41:56.769Z,30.70
2022-07-25T04:42:26.794Z,30.68
2022-07-25T04:42:56.823Z,30.65
2022-07-25T04:43:26.847Z,30.64
2022-07-25T04:43:56.882Z,30.62
2022-07-25T04:44:26.920Z,30.61
2022-07-25T04:44:56.944Z,30.61
2022-07-25T04:45:27.018Z,30.61
2022-07-25T04:45:57.191Z,30.58
2022-07-25T04:46:27.096Z,30.58
2022-07-25T04:46:57.114Z,30.55
2022-07-25T04:47:27.138Z,30.52
2022-07-25T04:47:57.168Z,30.50
2022-07-25T04:48:27.325Z,30.44
2022-07-25T04:48:57.343Z,30.41
2022-07-25T04:49:27.246Z,30.28
2022-07-25T04:49:57.273Z,30.24
2022-07-25T04:50:27.297Z,30.23
2022-07-25T04:50:57.341Z,30.14
2022-07-25T04:51:27.369Z,30.14
2022-07-25T04:51:57.397Z,30.12
2022-07-25T04:52:27.422Z,30.04
2022-07-25T04:52:57.454Z,30.04
2022-07-25T04:53:27.469Z,30.03
2022-07-25T04:53:57.497Z,30.03
2022-07-25T04:54:27.516Z,29.97
2022-07-25T04:54:57.547Z,29.95
2022-07-25T04:55:27.576Z,29.97
2022-07-25T04:55:57.601Z,29.97
2022-07-25T04:56:27.628Z,29.97
2022-07-25T04:56:57.658Z,29.91
2022-07-25T04:57:27.685Z,29.92
2022-07-25T04:57:57.685Z,29.91
2022-07-25T04:58:27.815Z,29.91
2022-07-25T04:59:01.778Z,29.92
2022-07-25T04:59:27.868Z,29.91
2022-07-25T04:59:57.983Z,29.88
2022-07-25T05:00:28.098Z,29.88
2022-07-25T05:00:58.173Z,29.88
2022-07-25T05:01:28.232Z,29.88
2022-07-25T05:01:58.333Z,29.86
2022-07-25T05:02:28.386Z,29.89
2022-07-25T05:02:58.374Z,29.89
2022-07-25T05:03:28.491Z,29.86
2022-07-25T05:03:58.605Z,29.89
2022-07-25T05:04:28.717Z,29.91
2022-07-25T05:04:58.828Z,29.92
2022-07-25T05:05:28.829Z,29.95
2022-07-25T05:05:58.953Z,29.96
2022-07-25T05:06:29.164Z,30.00
2022-07-25T05:06:59.177Z,30.03
2022-07-25T05:07:29.292Z,30.02
2022-07-25T05:07:59.305Z,30.02
2022-07-25T05:08:29.331Z,30.03
2022-07-25T05:08:59.362Z,30.03
2022-07-25T05:09:29.377Z,29.99
2022-07-25T05:09:59.411Z,30.03
2022-07-25T05:10:29.432Z,30.04
2022-07-25T05:10:59.470Z,30.06
2022-07-25T05:11:29.489Z,30.09
2022-07-25T05:11:59.513Z,30.06
2022-07-25T05:12:29.632Z,30.10
2022-07-25T05:12:59.650Z,30.07
2022-07-25T05:13:29.674Z,30.07
2022-07-25T05:13:59.698Z,30.07
2022-07-25T05:14:29.725Z,30.07
2022-07-25T05:14:59.753Z,30.04
2022-07-25T05:15:29.780Z,30.06
2022-07-25T05:15:59.860Z,30.07
2022-07-25T05:16:30.008Z,30.07
2022-07-25T05:17:00.019Z,30.07
2022-07-25T05:17:30.069Z,30.07
2022-07-25T05:18:00.089Z,30.07
2022-07-25T05:18:30.115Z,30.07
2022-07-25T05:19:00.134Z,30.07
2022-07-25T05:19:30.161Z,30.06
2022-07-25T05:20:00.194Z,30.04
2022-07-25T05:20:30.217Z,30.06
2022-07-25T05:21:00.247Z,30.03
2022-07-25T05:21:30.272Z,30.04
2022-07-25T05:22:00.360Z,30.04
2022-07-25T05:22:30.383Z,30.04
2022-07-25T05:23:00.417Z,30.00
2022-07-25T05:23:30.438Z,30.02
2022-07-25T05:24:00.456Z,30.00
2022-07-25T05:24:30.478Z,30.03
2022-07-25T05:25:00.503Z,30.00
2022-07-25T05:25:30.523Z,30.00
2022-07-25T05:26:00.545Z,29.99
2022-07-25T05:26:30.569Z,29.96
2022-07-25T05:27:00.595Z,29.89
2022-07-25T05:27:30.696Z,29.89
2022-07-25T05:28:00.725Z,29.88
2022-07-25T05:28:30.750Z,29.91
2022-07-25T05:29:00.777Z,29.91
2022-07-25T05:29:30.803Z,29.89
2022-07-25T05:30:00.828Z,29.89
2022-07-25T05:30:30.857Z,29.91
2022-07-25T05:31:01.017Z,29.88
2022-07-25T05:31:31.088Z,29.86
2022-07-25T05:32:01.130Z,29.88
2022-07-25T05:32:31.039Z,29.92
2022-07-25T05:33:01.066Z,29.92
2022-07-25T05:33:31.101Z,29.92
2022-07-25T05:34:01.122Z,29.95
2022-07-25T05:34:31.147Z,29.95
2022-07-25T05:35:01.178Z,29.96
2022-07-25T05:35:31.202Z,29.96
2022-07-25T05:36:01.234Z,30.00
2022-07-25T05:36:31.261Z,29.97
2022-07-25T05:37:01.296Z,29.86
2022-07-25T05:37:31.324Z,29.85
2022-07-25T05:38:01.357Z,29.82
2022-07-25T05:38:31.376Z,29.83
2022-07-25T05:39:01.390Z,29.81
2022-07-25T05:39:31.421Z,29.77
2022-07-25T05:40:01.450Z,29.79
2022-07-25T05:40:31.473Z,29.82
2022-07-25T05:41:01.504Z,29.82
2022-07-25T05:41:31.537Z,29.81
2022-07-25T05:42:01.585Z,29.85
2022-07-25T05:42:31.629Z,29.86
2022-07-25T05:43:03.606Z,29.85
2022-07-25T05:43:31.661Z,29.88
2022-07-25T05:44:01.692Z,29.86
2022-07-25T05:44:31.725Z,29.91
2022-07-25T05:45:01.764Z,29.93
2022-07-25T05:45:31.786Z,29.95
2022-07-25T05:46:01.802Z,29.95
2022-07-25T05:46:31.855Z,29.96
2022-07-25T05:47:01.986Z,29.96
2022-07-25T05:47:31.923Z,29.99
2022-07-25T05:48:01.946Z,29.99
2022-07-25T05:48:32.083Z,29.95
2022-07-25T05:49:02.118Z,29.96
2022-07-25T05:49:32.029Z,29.97
2022-07-25T05:50:02.102Z,30.00
2022-07-25T05:50:32.099Z,29.99
2022-07-25T05:51:02.130Z,29.99
2022-07-25T05:51:32.170Z,30.03
2022-07-25T05:52:02.197Z,30.00
2022-07-25T05:52:32.246Z,30.00
2022-07-25T05:53:02.283Z,30.03
2022-07-25T05:53:32.286Z,29.99
2022-07-25T05:54:02.426Z,30.00
2022-07-25T05:54:32.368Z,29.97
2022-07-25T05:55:02.389Z,29.96
2022-07-25T05:55:32.419Z,29.93
2022-07-25T05:56:02.442Z,29.89
2022-07-25T05:56:32.467Z,29.89
2022-07-25T05:57:02.497Z,29.85
2022-07-25T05:57:32.528Z,29.85
2022-07-25T05:58:02.714Z,29.81
2022-07-25T05:58:32.695Z,29.82
2022-07-25T05:59:41.750Z,29.83
2022-07-25T06:00:11.820Z,29.86
2022-07-25T06:00:41.898Z,29.85
2022-07-25T06:01:11.979Z,29.83
2022-07-25T06:01:42.065Z,29.81
2022-07-25T06:02:12.327Z,29.82
2022-07-25T06:02:42.324Z,29.79
2022-07-25T06:03:12.265Z,29.82
2022-07-25T06:03:42.248Z,29.81
2022-07-25T06:04:12.325Z,29.83
2022-07-25T06:04:42.413Z,29.86
2022-07-25T06:05:12.488Z,29.82
2022-07-25T06:05:42.570Z,29.86
2022-07-25T06:06:12.648Z,29.88
2022-07-25T06:06:42.719Z,29.91
2022-07-25T06:07:12.811Z,29.93
2022-07-25T06:07:42.882Z,29.92
2022-07-25T06:08:12.964Z,29.93
2022-07-25T06:08:43.044Z,29.92
2022-07-25T06:09:13.158Z,29.88
2022-07-25T06:09:43.151Z,29.88
2022-07-25T06:10:13.274Z,29.91
2022-07-25T06:10:43.271Z,29.92
2022-07-25T06:11:13.385Z,29.95
2022-07-25T06:11:51.100Z,29.97
2022-07-25T06:12:13.511Z,30.02
2022-07-25T06:12:43.532Z,30.03
2022-07-25T06:13:13.642Z,30.04
2022-07-25T06:13:43.754Z,30.03
2022-07-25T06:14:13.797Z,30.04
2022-07-25T06:14:43.904Z,30.06
2022-07-25T06:15:17.649Z,30.12
2022-07-25T06:15:44.029Z,30.10
2022-07-25T06:16:14.224Z,30.12
2022-07-25T06:16:44.259Z,30.13
2022-07-25T06:17:14.240Z,30.12
2022-07-25T06:17:44.353Z,30.12
2022-07-25T06:18:14.464Z,30.06
2022-07-25T06:18:44.574Z,30.02
2022-07-25T06:19:14.688Z,29.97
2022-07-25T06:19:44.798Z,29.96
2022-07-25T06:20:14.920Z,29.99
2022-07-25T06:20:45.021Z,29.99
2022-07-25T06:21:15.139Z,30.00
2022-07-25T06:21:45.246Z,30.03
2022-07-25T06:22:15.365Z,30.04
2022-07-25T06:22:45.354Z,29.97
2022-07-25T06:23:15.470Z,29.93
2022-07-25T06:23:45.585Z,29.86
2022-07-25T06:24:15.701Z,29.88
2022-07-25T06:24:45.810Z,29.73
2022-07-25T06:25:15.927Z,29.69
2022-07-25T06:25:50.336Z,29.72
2022-07-25T06:26:16.091Z,29.76
2022-07-25T06:26:46.209Z,29.62
2022-07-25T06:27:20.364Z,29.66
2022-07-25T06:27:46.344Z,29.69